Time;durP1;ratioP1;P1;durP2;ratioP2;P2;SDS_P1;SDS_P2;PMS_P1;PMS_P2;Temp;Humidity;BMP_temperature;BMP_pressure;BME280_temperature;BME280_humidity;BME280_pressure;Samples;Min_cycle;Max_cycle;Signal;HPM_P1;HPM_P2
2021/12/13 00:00:47;;;;;;;31.23;15.93;;;5.90;99.90;;;;;;5073204;28;20796;-71
2021/12/13 00:03:26;;;;;;;31.27;16.53;;;5.90;99.90;;;;;;5051164;28;20261;-70
2021/12/13 00:06:00;;;;;;;28.57;15.37;;;5.90;99.90;;;;;;5064032;28;20180;-74
2021/12/13 00:08:29;;;;;;;29.73;16.00;;;5.90;99.90;;;;;;5043884;28;20703;-71
2021/12/13 00:11:07;;;;;;;33.17;17.13;;;5.90;99.90;;;;;;5034585;28;20846;-73
2021/12/13 00:13:44;;;;;;;28.57;15.53;;;5.90;99.90;;;;;;5031815;28;20192;-73
2021/12/13 00:16:11;;;;;;;30.60;16.33;;;5.90;99.90;;;;;;5036381;28;20669;-75
2021/12/13 00:18:41;;;;;;;26.43;16.03;;;5.90;99.90;;;;;;5069599;28;20167;-76
2021/12/13 00:21:12;;;;;;;25.03;15.23;;;5.90;99.90;;;;;;5073003;28;20220;-75
2021/12/13 00:23:46;;;;;;;28.97;15.70;;;5.90;99.90;;;;;;5072380;28;20190;-73
2021/12/13 00:26:21;;;;;;;29.73;15.80;;;6.00;99.90;;;;;;5072781;28;20261;-74
2021/12/13 00:28:48;;;;;;;28.83;16.00;;;6.00;99.90;;;;;;5072057;28;20167;-77
2021/12/13 00:31:33;;;;;;;27.67;15.63;;;6.00;99.90;;;;;;5072664;28;20180;-75
2021/12/13 00:34:21;;;;;;;28.03;15.67;;;6.00;99.90;;;;;;5050974;28;20206;-75
2021/12/13 00:36:55;;;;;;;31.87;17.00;;;6.00;99.90;;;;;;5053339;28;20171;-75
2021/12/13 00:39:27;;;;;;;30.43;16.37;;;6.00;99.90;;;;;;5067356;28;20176;-74
2021/12/13 00:41:54;;;;;;;28.00;15.87;;;6.00;99.90;;;;;;5071608;28;20187;-74
2021/12/13 00:44:42;;;;;;;30.60;16.17;;;6.10;99.90;;;;;;5072043;28;20163;-72
2021/12/13 00:47:42;;;;;;;31.00;16.77;;;6.00;99.90;;;;;;5043470;28;20180;-72
2021/12/13 00:50:25;;;;;;;26.77;15.67;;;6.00;99.90;;;;;;5045431;28;20175;-75
2021/12/13 00:52:52;;;;;;;30.33;16.53;;;6.10;99.90;;;;;;5071408;28;20268;-73
2021/12/13 00:55:24;;;;;;;30.17;16.63;;;6.10;99.90;;;;;;5072100;28;20167;-74
2021/12/13 00:58:08;;;;;;;30.37;15.57;;;6.10;99.90;;;;;;5071661;28;20591;-73
2021/12/13 01:00:42;;;;;;;29.73;16.23;;;6.10;99.90;;;;;;5071903;28;20163;-74
2021/12/13 01:03:20;;;;;;;31.13;17.27;;;6.10;99.90;;;;;;5071183;28;20194;-75
2021/12/13 01:06:07;;;;;;;32.17;17.73;;;6.10;99.90;;;;;;5071930;28;20649;-73
2021/12/13 01:09:06;;;;;;;32.80;17.47;;;6.10;99.90;;;;;;5071183;28;20171;-75
2021/12/13 01:11:48;;;;;;;32.27;17.27;;;6.20;99.90;;;;;;5067063;28;20648;-72
2021/12/13 01:14:38;;;;;;;30.87;16.33;;;6.10;99.90;;;;;;5065400;28;20171;-72
2021/12/13 01:17:28;;;;;;;31.97;16.83;;;6.20;99.90;;;;;;5037988;28;20169;-73
2021/12/13 01:20:04;;;;;;;32.17;17.10;;;6.10;99.90;;;;;;5050741;28;20178;-73
2021/12/13 01:25:18;;;;;;;29.63;16.57;;;6.10;99.90;;;;;;5051703;28;20186;-74
2021/12/13 01:27:52;;;;;;;32.93;17.43;;;6.20;99.90;;;;;;5051205;28;20168;-76
2021/12/13 01:30:33;;;;;;;30.67;17.27;;;6.20;99.90;;;;;;5052069;28;20175;-76
2021/12/13 01:33:02;;;;;;;29.03;16.63;;;6.20;99.90;;;;;;5051331;28;20183;-69
2021/12/13 01:35:31;;;;;;;29.13;16.40;;;6.20;99.90;;;;;;5051333;28;20202;-77
2021/12/13 01:38:03;;;;;;;31.17;17.43;;;6.20;99.90;;;;;;5029781;28;20250;-74
2021/12/13 01:40:32;;;;;;;30.80;16.80;;;6.20;99.90;;;;;;5047411;28;20171;-74
2021/12/13 01:43:02;;;;;;;31.00;16.77;;;6.20;99.90;;;;;;5050961;28;20203;-74
2021/12/13 01:45:32;;;;;;;31.23;17.27;;;6.20;99.90;;;;;;5050838;28;20160;-72
2021/12/13 01:48:00;;;;;;;32.23;17.27;;;6.20;99.90;;;;;;5050985;28;20159;-71
2021/12/13 01:50:31;;;;;;;30.97;15.97;;;6.20;99.90;;;;;;5029982;28;20168;-71
2021/12/13 01:53:00;;;;;;;28.87;16.67;;;6.20;99.90;;;;;;5050771;28;20261;-73
2021/12/13 01:55:37;;;;;;;33.27;16.93;;;6.20;99.90;;;;;;5051047;28;20176;-73
2021/12/13 01:58:35;;;;;;;32.40;17.00;;;6.20;99.90;;;;;;5049432;28;20167;-75
2021/12/13 02:01:12;;;;;;;32.27;17.40;;;6.20;99.90;;;;;;5048648;28;20171;-72
2021/12/13 02:03:46;;;;;;;32.80;16.73;;;6.30;99.90;;;;;;5048192;28;20187;-72
2021/12/13 02:06:39;;;;;;;33.47;17.37;;;6.30;99.90;;;;;;5050979;28;20167;-73
2021/12/13 02:09:20;;;;;;;32.20;17.47;;;6.40;99.90;;;;;;5050559;28;20509;-72
2021/12/13 02:11:51;;;;;;;32.60;17.57;;;6.50;99.90;;;;;;5051079;28;20188;-76
2021/12/13 02:14:20;;;;;;;32.07;16.77;;;6.50;99.90;;;;;;5050852;28;20149;-73
2021/12/13 02:17:10;;;;;;;29.60;17.07;;;6.50;99.90;;;;;;5060824;28;20171;-74
2021/12/13 02:19:57;;;;;;;31.60;17.23;;;6.40;99.90;;;;;;5070534;28;20623;-73
2021/12/13 02:22:31;;;;;;;27.30;16.10;;;6.40;99.90;;;;;;5049270;28;20206;-72
2021/12/13 02:25:02;;;;;;;35.80;17.43;;;6.40;99.90;;;;;;5070680;28;20175;-74
2021/12/13 02:27:31;;;;;;;32.73;17.23;;;6.40;99.90;;;;;;5070877;28;20205;-72
2021/12/13 02:30:00;;;;;;;35.70;18.17;;;6.30;99.90;;;;;;5070301;28;20268;-73
2021/12/13 02:32:28;;;;;;;32.57;17.77;;;6.40;99.90;;;;;;5070642;28;20187;-73
2021/12/13 02:34:56;;;;;;;33.53;17.47;;;6.40;99.90;;;;;;5052197;28;20175;-73
2021/12/13 02:37:25;;;;;;;31.83;17.03;;;6.30;99.90;;;;;;5049460;28;20175;-73
2021/12/13 02:39:56;;;;;;;30.53;17.47;;;6.40;99.90;;;;;;5069530;28;20526;-74
2021/12/13 02:42:23;;;;;;;33.43;17.13;;;6.40;99.90;;;;;;5070549;28;20682;-71
2021/12/13 02:44:57;;;;;;;34.57;18.17;;;6.30;99.90;;;;;;5070595;28;20178;-73
2021/12/13 02:47:22;;;;;;;34.43;17.97;;;6.30;99.90;;;;;;5070516;28;20543;-73
2021/12/13 02:49:49;;;;;;;32.60;16.70;;;6.30;99.90;;;;;;5070239;28;20163;-72
2021/12/13 02:52:19;;;;;;;36.07;18.50;;;6.40;99.90;;;;;;5049106;28;20818;-73
2021/12/13 02:54:49;;;;;;;32.73;16.90;;;6.30;99.90;;;;;;5051181;28;20176;-72
2021/12/13 02:57:24;;;;;;;33.23;17.33;;;6.40;99.90;;;;;;5075116;28;20189;-71
2021/12/13 03:00:00;;;;;;;32.50;16.57;;;6.30;99.90;;;;;;5069198;28;20179;-72
2021/12/13 03:02:38;;;;;;;32.27;17.60;;;6.40;99.90;;;;;;5049539;28;20226;-77
2021/12/13 03:05:08;;;;;;;36.13;17.43;;;6.30;99.90;;;;;;5048672;28;20206;-72
2021/12/13 03:07:39;;;;;;;35.33;17.77;;;6.40;99.90;;;;;;5053892;28;20586;-73
2021/12/13 03:10:10;;;;;;;37.60;18.67;;;6.40;99.90;;;;;;5043097;28;20227;-72
2021/12/13 03:12:36;;;;;;;35.33;16.80;;;6.40;99.90;;;;;;5031360;28;20192;-73
2021/12/13 03:15:08;;;;;;;35.33;17.37;;;6.40;99.90;;;;;;5033843;28;20184;-72
2021/12/13 03:17:48;;;;;;;33.50;16.60;;;6.40;99.90;;;;;;5045961;28;20177;-73
2021/12/13 03:20:20;;;;;;;35.33;16.83;;;6.30;99.90;;;;;;5033575;28;20176;-72
2021/12/13 03:23:13;;;;;;;33.33;16.63;;;6.40;99.90;;;;;;5053440;28;20734;-71
2021/12/13 03:26:12;;;;;;;32.47;15.97;;;6.40;99.90;;;;;;5035113;28;20194;-71
2021/12/13 03:28:54;;;;;;;36.03;16.00;;;6.40;99.90;;;;;;5053887;28;20530;-71
2021/12/13 03:31:25;;;;;;;34.40;16.47;;;6.40;99.90;;;;;;5033338;28;20501;-72
2021/12/13 03:33:51;;;;;;;40.93;18.17;;;6.40;99.90;;;;;;5053144;28;20152;-72
2021/12/13 03:36:21;;;;;;;34.77;17.07;;;6.40;99.90;;;;;;5054085;28;20183;-72
2021/12/13 03:38:51;;;;;;;39.67;17.07;;;6.40;99.90;;;;;;5053523;28;20184;-72
2021/12/13 03:41:26;;;;;;;37.33;16.87;;;6.40;99.90;;;;;;5054155;28;20555;-72
2021/12/13 03:44:00;;;;;;;38.00;17.73;;;6.40;99.90;;;;;;5069095;28;20202;-71
2021/12/13 03:46:29;;;;;;;33.37;15.97;;;6.40;99.90;;;;;;5053994;28;20164;-72
2021/12/13 03:48:56;;;;;;;36.90;16.93;;;6.40;99.90;;;;;;5053437;28;20627;-73
2021/12/13 03:51:27;;;;;;;37.17;17.33;;;6.40;99.90;;;;;;5053944;28;20524;-72
2021/12/13 03:53:55;;;;;;;32.93;15.17;;;6.40;99.90;;;;;;5110162;23;20321;-71
2021/12/13 03:56:26;;;;;;;35.93;16.07;;;6.30;99.90;;;;;;5072337;28;20685;-72
2021/12/13 03:58:58;;;;;;;34.83;15.50;;;6.30;99.90;;;;;;5092745;28;20166;-71
2021/12/13 04:01:28;;;;;;;35.23;17.13;;;6.40;99.90;;;;;;5094185;28;20220;-72
2021/12/13 04:03:57;;;;;;;35.63;16.07;;;6.40;99.90;;;;;;5092457;28;20205;-73
2021/12/13 04:06:23;;;;;;;35.50;16.57;;;6.40;99.90;;;;;;5092271;28;20169;-71
2021/12/13 04:08:54;;;;;;;35.80;15.77;;;6.40;99.90;;;;;;5112492;28;20162;-72
2021/12/13 04:11:24;;;;;;;35.70;15.63;;;6.40;99.90;;;;;;5092608;28;20177;-71
2021/12/13 04:14:06;;;;;;;38.40;17.40;;;6.40;99.90;;;;;;5112846;28;20653;-72
2021/12/13 04:16:49;;;;;;;34.60;16.23;;;6.40;99.90;;;;;;5114172;28;20655;-72
2021/12/13 04:19:23;;;;;;;31.17;15.40;;;6.30;99.90;;;;;;5113642;28;20177;-72
2021/12/13 04:22:01;;;;;;;41.00;16.30;;;6.40;99.90;;;;;;5097273;28;20185;-72
2021/12/13 04:24:30;;;;;;;33.83;16.10;;;6.40;99.90;;;;;;5094796;28;20182;-72
2021/12/13 04:27:01;;;;;;;33.40;15.17;;;6.40;99.90;;;;;;5120051;28;20622;-72
2021/12/13 04:29:32;;;;;;;40.63;15.93;;;6.40;99.90;;;;;;5114990;28;20166;-72
2021/12/13 04:32:13;;;;;;;36.23;15.37;;;6.40;99.90;;;;;;5113748;28;20502;-72
2021/12/13 04:34:41;;;;;;;31.60;14.70;;;6.50;99.90;;;;;;5113629;28;20161;-72
2021/12/13 04:37:11;;;;;;;37.73;15.60;;;6.50;99.90;;;;;;5113552;28;20580;-72
2021/12/13 04:39:38;;;;;;;36.37;15.37;;;6.40;99.90;;;;;;5092051;28;20171;-71
2021/12/13 04:42:11;;;;;;;41.43;17.13;;;6.40;99.90;;;;;;5091639;28;20749;-72
2021/12/13 04:45:08;;;;;;;41.57;15.23;;;6.50;99.90;;;;;;5110413;28;20622;-72
2021/12/13 04:47:47;;;;;;;32.87;14.83;;;6.40;99.90;;;;;;5105557;28;20182;-71
2021/12/13 04:50:18;;;;;;;41.57;15.80;;;6.40;99.90;;;;;;5113175;28;20669;-72
2021/12/13 04:52:44;;;;;;;35.10;15.20;;;6.40;99.90;;;;;;5113129;28;20209;-72
2021/12/13 04:55:18;;;;;;;38.93;15.30;;;6.40;99.90;;;;;;5091519;28;20185;-72
2021/12/13 04:57:46;;;;;;;37.73;15.23;;;6.50;99.90;;;;;;5092819;28;20223;-74
2021/12/13 05:00:16;;;;;;;39.90;16.30;;;6.50;99.90;;;;;;5113113;28;20210;-72
2021/12/13 05:02:47;;;;;;;40.33;15.63;;;6.50;99.90;;;;;;5092313;28;20209;-72
2021/12/13 05:05:15;;;;;;;42.20;15.40;;;6.50;99.90;;;;;;5091291;28;20181;-72
2021/12/13 05:07:43;;;;;;;40.93;16.83;;;6.50;99.90;;;;;;5092337;28;20697;-72
2021/12/13 05:10:10;;;;;;;38.90;15.70;;;6.50;99.90;;;;;;5091241;28;20171;-72
2021/12/13 05:12:36;;;;;;;43.37;15.93;;;6.50;99.90;;;;;;5109747;28;20257;-72
2021/12/13 05:15:09;;;;;;;41.60;15.37;;;6.50;99.90;;;;;;5112728;28;20169;-72
2021/12/13 05:17:42;;;;;;;38.50;14.53;;;6.60;99.90;;;;;;5091417;28;20554;-72
2021/12/13 05:20:14;;;;;;;38.53;16.53;;;6.50;99.90;;;;;;5111742;28;20200;-72
2021/12/13 05:22:55;;;;;;;41.10;15.57;;;6.50;99.90;;;;;;5092006;28;20209;-72
2021/12/13 05:25:51;;;;;;;46.87;16.13;;;6.50;99.90;;;;;;5112708;28;20162;-72
2021/12/13 05:28:21;;;;;;;38.23;15.13;;;6.50;99.90;;;;;;5110780;28;20656;-72
2021/12/13 05:30:54;;;;;;;40.27;15.53;;;6.50;99.90;;;;;;5112398;28;20174;-72
2021/12/13 05:33:21;;;;;;;41.33;15.30;;;6.50;99.90;;;;;;5112318;28;20222;-72
2021/12/13 05:35:50;;;;;;;40.63;14.50;;;6.50;99.90;;;;;;5092857;28;20181;-72
2021/12/13 05:38:30;;;;;;;36.40;15.47;;;6.50;99.90;;;;;;5090390;28;20177;-72
2021/12/13 05:40:59;;;;;;;41.20;16.20;;;6.50;99.90;;;;;;5094343;28;20176;-72
2021/12/13 05:43:30;;;;;;;45.47;16.20;;;6.50;99.90;;;;;;5111960;28;20201;-71
2021/12/13 05:46:12;;;;;;;42.30;15.23;;;6.50;99.90;;;;;;5112357;28;20219;-71
2021/12/13 05:48:44;;;;;;;40.93;15.03;;;6.50;99.90;;;;;;5111707;28;20162;-71
2021/12/13 05:51:49;;;;;;;39.37;15.83;;;6.50;99.90;;;;;;5112179;28;20268;-71
2021/12/13 05:54:43;;;;;;;43.87;16.37;;;6.50;99.90;;;;;;5111707;28;20197;-71
2021/12/13 05:57:20;;;;;;;41.60;14.37;;;6.50;99.90;;;;;;5087977;28;20178;-73
2021/12/13 06:00:11;;;;;;;42.20;16.23;;;6.60;99.90;;;;;;5091840;28;20205;-72
2021/12/13 06:03:03;;;;;;;39.40;14.77;;;6.60;99.90;;;;;;5091016;28;20728;-71
2021/12/13 06:05:40;;;;;;;38.67;14.37;;;6.50;99.90;;;;;;5081174;28;20174;-71
2021/12/13 06:08:10;;;;;;;42.43;14.67;;;6.60;99.90;;;;;;5104312;28;20172;-72
2021/12/13 06:10:46;;;;;;;40.77;14.43;;;6.60;99.90;;;;;;5112150;28;20653;-71
2021/12/13 06:13:39;;;;;;;42.30;14.83;;;6.60;99.90;;;;;;5111822;28;20204;-72
2021/12/13 06:16:04;;;;;;;38.97;15.20;;;6.60;99.90;;;;;;5112000;28;20204;-72
2021/12/13 06:18:38;;;;;;;42.17;15.03;;;6.60;99.90;;;;;;5111627;28;20205;-72
2021/12/13 06:21:43;;;;;;;44.60;16.60;;;6.60;99.90;;;;;;5111644;28;20191;-71
2021/12/13 06:24:11;;;;;;;42.53;14.53;;;6.60;99.90;;;;;;5104498;28;20558;-72
2021/12/13 06:26:37;;;;;;;38.70;14.30;;;6.60;99.90;;;;;;5111984;28;20257;-72
2021/12/13 06:29:06;;;;;;;44.70;14.73;;;6.60;99.90;;;;;;5111638;28;20819;-71
2021/12/13 06:31:41;;;;;;;42.07;15.60;;;6.60;99.90;;;;;;5115150;28;20174;-72
2021/12/13 06:34:16;;;;;;;43.33;15.87;;;6.60;99.90;;;;;;5115688;28;20240;-73
2021/12/13 06:36:47;;;;;;;42.20;15.03;;;6.70;99.90;;;;;;5115631;28;20185;-71
2021/12/13 06:39:17;;;;;;;39.70;16.17;;;6.70;99.90;;;;;;5115329;28;20211;-71
2021/12/13 06:41:46;;;;;;;44.33;15.57;;;6.70;99.90;;;;;;5115700;28;20205;-71
2021/12/13 06:44:24;;;;;;;42.63;15.70;;;6.70;99.90;;;;;;5093775;28;20210;-72
2021/12/13 06:46:59;;;;;;;41.10;14.10;;;6.60;99.90;;;;;;5096529;28;20171;-72
2021/12/13 06:49:31;;;;;;;42.27;14.63;;;6.60;99.90;;;;;;5093756;28;20564;-71
2021/12/13 06:52:02;;;;;;;55.23;15.97;;;6.70;99.90;;;;;;5115232;28;20655;-72
2021/12/13 06:54:30;;;;;;;50.13;16.13;;;6.70;99.90;;;;;;5094179;28;20175;-72
2021/12/13 06:57:00;;;;;;;54.47;16.90;;;6.60;99.90;;;;;;5098340;28;20174;-72
2021/12/13 06:59:29;;;;;;;39.97;15.73;;;6.70;99.90;;;;;;5114946;28;20213;-72
2021/12/13 07:01:58;;;;;;;47.77;17.67;;;6.70;99.90;;;;;;5115251;28;20217;-72
2021/12/13 07:04:24;;;;;;;48.50;16.87;;;6.70;99.90;;;;;;5093197;28;20170;-71
2021/12/13 07:06:50;;;;;;;40.97;14.83;;;6.70;99.90;;;;;;5114252;28;20188;-71
2021/12/13 07:09:21;;;;;;;43.60;15.20;;;6.70;99.90;;;;;;5093114;28;20216;-71
2021/12/13 07:11:46;;;;;;;45.60;15.80;;;6.70;99.90;;;;;;5095617;28;20186;-72
2021/12/13 07:14:14;;;;;;;38.80;15.17;;;6.70;99.90;;;;;;5093185;28;20285;-72
2021/12/13 07:16:43;;;;;;;44.63;15.93;;;6.70;99.90;;;;;;5112471;28;20189;-72
2021/12/13 07:19:20;;;;;;;44.37;15.73;;;6.70;99.90;;;;;;5114545;28;20170;-72
2021/12/13 07:21:56;;;;;;;37.53;14.50;;;6.70;99.90;;;;;;5114930;28;20165;-72
2021/12/13 07:24:40;;;;;;;37.73;15.33;;;6.70;99.90;;;;;;5114592;28;20169;-71
2021/12/13 07:27:29;;;;;;;44.07;14.60;;;6.80;99.90;;;;;;5117236;28;20173;-72
2021/12/13 07:29:57;;;;;;;37.53;14.57;;;6.70;99.90;;;;;;5114315;28;20199;-72
2021/12/13 07:32:36;;;;;;;36.20;15.27;;;6.80;99.90;;;;;;5092957;28;20231;-71
2021/12/13 07:35:05;;;;;;;41.27;15.30;;;6.80;99.90;;;;;;5088335;28;20173;-71
2021/12/13 07:37:52;;;;;;;43.40;14.93;;;6.80;99.90;;;;;;5096238;28;20172;-72
2021/12/13 07:40:18;;;;;;;38.20;14.27;;;6.80;99.90;;;;;;5096116;28;20174;-72
2021/12/13 07:43:13;;;;;;;35.03;15.00;;;6.80;99.90;;;;;;5113345;28;20256;-71
2021/12/13 07:46:16;;;;;;;35.10;13.50;;;6.90;99.90;;;;;;5114646;28;20205;-71
2021/12/13 07:48:41;;;;;;;36.27;13.63;;;6.90;99.90;;;;;;5113818;28;20165;-71
2021/12/13 07:51:26;;;;;;;31.90;13.30;;;6.90;99.90;;;;;;5114375;28;20218;-71
2021/12/13 07:53:58;;;;;;;34.20;14.10;;;6.90;99.90;;;;;;5095132;28;20674;-71
2021/12/13 07:56:33;;;;;;;32.23;12.87;;;6.90;99.90;;;;;;5114362;28;20238;-70
2021/12/13 07:59:07;;;;;;;35.23;14.57;;;7.00;99.90;;;;;;5113756;28;20170;-71
2021/12/13 08:01:42;;;;;;;36.23;14.00;;;7.00;99.90;;;;;;5093445;28;20573;-71
2021/12/13 08:04:12;;;;;;;34.17;13.53;;;7.00;99.90;;;;;;5113799;28;20189;-71
2021/12/13 08:06:44;;;;;;;30.97;12.73;;;7.00;99.90;;;;;;5114184;28;20513;-70
2021/12/13 08:09:40;;;;;;;29.33;12.93;;;7.00;99.90;;;;;;5113691;28;20173;-71
2021/12/13 08:12:20;;;;;;;31.53;13.53;;;7.10;99.90;;;;;;5112546;28;20182;-71
2021/12/13 08:14:49;;;;;;;34.60;13.43;;;7.10;99.90;;;;;;5113604;28;20586;-71
2021/12/13 08:17:25;;;;;;;26.93;12.53;;;7.10;99.90;;;;;;5113930;28;20238;-72
2021/12/13 08:20:04;;;;;;;29.07;11.97;;;7.10;99.90;;;;;;5094239;28;20193;-71
2021/12/13 08:22:31;;;;;;;33.53;14.63;;;7.10;99.90;;;;;;5113215;28;20194;-71
2021/12/13 08:25:06;;;;;;;29.43;13.30;;;7.10;99.90;;;;;;5091599;28;20174;-71
2021/12/13 08:27:37;;;;;;;28.27;12.17;;;7.10;99.90;;;;;;5110120;28;20246;-71
2021/12/13 08:30:13;;;;;;;31.43;12.73;;;7.20;99.90;;;;;;5113355;28;20176;-71
2021/12/13 08:33:10;;;;;;;28.90;13.27;;;7.20;99.90;;;;;;5103245;28;20257;-70
2021/12/13 08:36:05;;;;;;;29.93;13.10;;;7.20;99.90;;;;;;5127141;27;20546;-71
2021/12/13 08:38:46;;;;;;;29.00;11.60;;;7.10;99.90;;;;;;5098733;27;20280;-71
2021/12/13 08:41:15;;;;;;;27.93;13.40;;;7.20;99.90;;;;;;5125195;27;20172;-70
2021/12/13 08:43:43;;;;;;;27.97;13.13;;;7.20;99.90;;;;;;5116887;27;20217;-71
2021/12/13 08:46:11;;;;;;;31.47;12.77;;;7.30;99.90;;;;;;5099950;28;20181;-72
2021/12/13 08:48:51;;;;;;;30.17;13.67;;;7.20;99.90;;;;;;5101519;28;20201;-70
2021/12/13 08:51:24;;;;;;;27.50;12.50;;;7.20;99.90;;;;;;5115967;27;20676;-70
2021/12/13 08:53:59;;;;;;;31.70;13.73;;;7.20;99.90;;;;;;5094073;27;20204;-71
2021/12/13 08:56:27;;;;;;;25.80;12.53;;;7.30;99.90;;;;;;5121066;27;20184;-71
2021/12/13 08:58:59;;;;;;;27.00;12.73;;;7.30;99.90;;;;;;5123825;27;20169;-70
2021/12/13 09:01:28;;;;;;;23.57;11.07;;;7.40;99.90;;;;;;5091200;28;20183;-71
2021/12/13 09:03:54;;;;;;;22.73;11.17;;;7.40;99.90;;;;;;5118890;27;20205;-70
2021/12/13 09:06:32;;;;;;;24.20;12.30;;;7.50;99.90;;;;;;5118437;27;20185;-71
2021/12/13 09:09:11;;;;;;;24.27;11.47;;;7.50;99.90;;;;;;5114196;27;20252;-72
2021/12/13 09:11:46;;;;;;;21.97;10.83;;;7.50;99.90;;;;;;5119771;27;20637;-70
2021/12/13 09:14:24;;;;;;;25.20;11.87;;;7.50;99.90;;;;;;5124958;27;20196;-70
2021/12/13 09:17:07;;;;;;;26.97;12.17;;;7.60;99.90;;;;;;5110644;27;20192;-71
2021/12/13 09:19:44;;;;;;;20.33;10.77;;;7.60;99.90;;;;;;5115538;27;20185;-70
2021/12/13 09:22:12;;;;;;;23.27;12.17;;;7.70;99.90;;;;;;5124453;27;20187;-70
2021/12/13 09:24:41;;;;;;;25.67;11.57;;;7.70;99.90;;;;;;5122245;27;20220;-70
2021/12/13 09:27:11;;;;;;;22.17;12.13;;;7.70;99.90;;;;;;5122035;27;20592;-71
2021/12/13 09:29:54;;;;;;;21.10;10.20;;;7.80;99.90;;;;;;5123995;27;20200;-71
2021/12/13 09:32:31;;;;;;;21.00;10.70;;;7.80;99.90;;;;;;5110892;27;20742;-71
2021/12/13 09:35:19;;;;;;;19.33;9.73;;;7.90;99.90;;;;;;5109168;27;20197;-71
2021/12/13 09:37:45;;;;;;;25.07;11.87;;;7.90;99.90;;;;;;5117784;27;20205;-71
2021/12/13 09:40:12;;;;;;;17.43;9.43;;;7.90;99.90;;;;;;5124057;27;20617;-73
2021/12/13 09:42:51;;;;;;;18.07;9.90;;;7.90;99.90;;;;;;5132992;27;20258;-70
2021/12/13 09:45:29;;;;;;;17.93;9.60;;;7.90;99.90;;;;;;5111009;28;20165;-74
2021/12/13 09:47:55;;;;;;;18.37;9.83;;;7.90;99.90;;;;;;5099933;28;20185;-71
2021/12/13 09:50:27;;;;;;;19.20;9.63;;;7.90;99.90;;;;;;5091868;28;20170;-72
2021/12/13 09:53:06;;;;;;;20.50;10.73;;;7.90;99.90;;;;;;5116441;27;20223;-72
2021/12/13 09:55:47;;;;;;;18.77;9.60;;;7.90;99.90;;;;;;5103665;28;20193;-74
2021/12/13 09:58:21;;;;;;;22.43;10.57;;;7.90;99.90;;;;;;5121557;27;20173;-75
2021/12/13 10:01:09;;;;;;;26.17;12.53;;;8.00;99.90;;;;;;5122818;22;20280;-72
2021/12/13 10:03:53;;;;;;;110.43;23.97;;;8.10;99.90;;;;;;5091430;28;20198;-72
2021/12/13 10:06:24;;;;;;;50.67;15.70;;;8.30;99.90;;;;;;5073022;28;20216;-72
2021/12/13 10:08:56;;;;;;;45.47;15.13;;;8.20;99.90;;;;;;5072964;28;20194;-71
2021/12/13 10:11:30;;;;;;;27.93;12.90;;;8.40;99.90;;;;;;5093742;28;20170;-73
2021/12/13 10:13:57;;;;;;;28.20;12.13;;;8.40;99.90;;;;;;5090327;28;20177;-71
2021/12/13 10:16:31;;;;;;;25.67;13.00;;;8.30;99.90;;;;;;5105217;28;20212;-72
2021/12/13 10:18:59;;;;;;;22.63;12.10;;;8.60;99.90;;;;;;5113311;28;20332;-72
2021/12/13 10:21:30;;;;;;;24.23;11.67;;;8.50;99.90;;;;;;5091207;28;20182;-74
2021/12/13 10:24:01;;;;;;;23.00;10.83;;;8.40;99.90;;;;;;5101877;28;20604;-72
2021/12/13 10:26:41;;;;;;;23.67;11.43;;;8.40;99.90;;;;;;5112314;28;20172;-72
2021/12/13 10:29:10;;;;;;;23.90;12.23;;;8.50;99.90;;;;;;5132943;28;20461;-72
2021/12/13 10:31:45;;;;;;;24.27;11.73;;;8.40;99.90;;;;;;5119994;28;20223;-75
2021/12/13 10:34:20;;;;;;;21.13;10.97;;;8.50;99.90;;;;;;5105952;28;20652;-75
2021/12/13 10:36:52;;;;;;;26.03;11.50;;;8.40;99.90;;;;;;5114236;28;20746;-75
2021/12/13 10:39:32;;;;;;;27.23;12.07;;;8.30;99.90;;;;;;5113208;28;20197;-75
2021/12/13 10:42:03;;;;;;;25.77;11.60;;;8.20;99.90;;;;;;5132263;28;20216;-75
2021/12/13 10:44:29;;;;;;;24.47;12.37;;;8.20;99.90;;;;;;5128918;28;20209;-76
2021/12/13 10:47:05;;;;;;;22.00;10.83;;;8.40;99.90;;;;;;5105020;28;20173;-72
2021/12/13 10:49:36;;;;;;;23.10;11.90;;;8.40;99.90;;;;;;5113607;28;20237;-74
2021/12/13 10:52:33;;;;;;;23.67;11.37;;;8.40;99.90;;;;;;5114025;28;20169;-74
2021/12/13 10:55:16;;;;;;;25.30;11.93;;;8.40;99.90;;;;;;5088941;28;20185;-73
2021/12/13 10:57:47;;;;;;;23.80;11.00;;;8.40;99.90;;;;;;5104884;28;20177;-76
2021/12/13 11:00:22;;;;;;;24.20;11.00;;;8.40;99.90;;;;;;5113524;28;20240;-77
2021/12/13 11:03:24;;;;;;;26.57;13.30;;;8.40;99.90;;;;;;5113813;28;20189;-75
2021/12/13 11:05:50;;;;;;;22.73;11.40;;;8.50;99.90;;;;;;5058016;28;20185;-76
2021/12/13 11:08:20;;;;;;;21.67;11.33;;;8.50;99.90;;;;;;5113712;28;20177;-74
2021/12/13 11:10:53;;;;;;;19.23;10.60;;;8.60;99.90;;;;;;5131917;28;20197;-74
2021/12/13 11:13:21;;;;;;;18.10;10.83;;;8.60;99.90;;;;;;5113333;28;20168;-72
2021/12/13 11:15:52;;;;;;;21.83;11.17;;;8.60;99.90;;;;;;5106271;28;20178;-73
2021/12/13 11:18:27;;;;;;;23.83;11.17;;;8.60;99.90;;;;;;5092237;28;20177;-74
2021/12/13 11:20:59;;;;;;;22.33;11.23;;;8.60;99.90;;;;;;5115689;27;20205;-77
2021/12/13 11:23:25;;;;;;;20.73;10.77;;;8.50;99.90;;;;;;5096346;28;20567;-74
2021/12/13 11:25:55;;;;;;;19.13;10.23;;;8.60;99.90;;;;;;5115015;28;20253;-74
2021/12/13 11:28:22;;;;;;;22.43;11.30;;;8.60;99.90;;;;;;5114802;28;20185;-72
2021/12/13 11:30:48;;;;;;;20.87;10.60;;;8.60;99.90;;;;;;5096463;28;20189;-70
2021/12/13 11:33:40;;;;;;;21.33;11.20;;;8.60;99.90;;;;;;5117260;28;20173;-70
2021/12/13 11:36:24;;;;;;;20.57;10.73;;;8.80;99.90;;;;;;5115649;28;20204;-70
2021/12/13 11:39:09;;;;;;;19.83;10.80;;;8.80;99.90;;;;;;5114506;28;20181;-71
2021/12/13 11:42:04;;;;;;;18.10;10.33;;;8.80;99.90;;;;;;5104161;27;20186;-72
2021/12/13 11:44:51;;;;;;;17.87;9.50;;;8.80;99.90;;;;;;5121652;27;20205;-70
2021/12/13 11:47:51;;;;;;;16.67;9.37;;;8.80;99.90;;;;;;5116804;27;20169;-71
2021/12/13 11:50:42;;;;;;;17.37;9.40;;;8.90;99.90;;;;;;5134722;27;20185;-71
2021/12/13 11:53:29;;;;;;;17.30;9.90;;;8.80;99.90;;;;;;5116364;27;20177;-72
2021/12/13 11:56:22;;;;;;;16.20;8.93;;;8.90;99.90;;;;;;5116407;27;20171;-72
2021/12/13 11:59:00;;;;;;;16.10;8.57;;;8.90;99.90;;;;;;5101936;27;20561;-75
2021/12/13 12:01:48;;;;;;;13.93;8.77;;;8.80;99.90;;;;;;5097203;27;20182;-75
2021/12/13 12:04:55;;;;;;;15.37;9.07;;;8.90;99.90;;;;;;5103965;28;20665;-74
2021/12/13 12:07:32;;;;;;;15.23;8.80;;;8.90;99.90;;;;;;5075404;28;20193;-71
2021/12/13 12:10:21;;;;;;;16.83;8.33;;;9.00;99.90;;;;;;5074584;28;20198;-71
2021/12/13 12:13:18;;;;;;;18.83;8.37;;;9.10;99.90;;;;;;5075634;28;20575;-71
2021/12/13 12:15:45;;;;;;;14.57;8.43;;;9.20;99.90;;;;;;5075282;28;20193;-71
2021/12/13 12:18:16;;;;;;;14.57;8.60;;;9.20;99.90;;;;;;5075068;28;20278;-72
2021/12/13 12:20:48;;;;;;;13.07;6.90;;;9.20;99.90;;;;;;5074973;28;20198;-71
2021/12/13 12:23:25;;;;;;;12.57;7.87;;;9.20;99.90;;;;;;5075321;28;20206;-71
2021/12/13 12:25:51;;;;;;;13.20;7.53;;;9.10;99.90;;;;;;5074917;28;20162;-72
2021/12/13 12:28:18;;;;;;;11.67;6.90;;;9.20;99.90;;;;;;5093051;28;20292;-71
2021/12/13 12:30:50;;;;;;;9.77;7.13;;;9.10;99.90;;;;;;5074869;28;20195;-71
2021/12/13 12:33:27;;;;;;;11.73;7.43;;;9.10;99.90;;;;;;5075080;28;20269;-71
2021/12/13 12:35:55;;;;;;;10.90;6.47;;;9.10;99.90;;;;;;5074694;28;20185;-71
2021/12/13 12:38:42;;;;;;;12.40;6.70;;;9.00;99.90;;;;;;5074565;28;20181;-71
2021/12/13 12:41:13;;;;;;;12.47;6.67;;;9.00;99.90;;;;;;5074773;28;20205;-71
2021/12/13 12:43:52;;;;;;;13.83;7.47;;;9.00;99.90;;;;;;5074836;28;20190;-72
2021/12/13 12:46:19;;;;;;;13.30;7.77;;;9.00;99.90;;;;;;5092894;28;20634;-72
2021/12/13 12:48:51;;;;;;;11.13;7.10;;;9.00;99.90;;;;;;5074062;28;20189;-72
2021/12/13 12:51:23;;;;;;;10.80;6.03;;;9.00;99.90;;;;;;5074844;28;20162;-72
2021/12/13 12:53:58;;;;;;;11.77;6.80;;;9.00;99.90;;;;;;5074451;28;20171;-72
2021/12/13 12:56:34;;;;;;;12.07;7.30;;;9.10;99.90;;;;;;5074318;28;20169;-71
2021/12/13 12:59:09;;;;;;;10.47;6.03;;;9.10;99.90;;;;;;5073791;28;20551;-71
2021/12/13 13:01:45;;;;;;;10.77;6.37;;;9.10;99.90;;;;;;5074417;28;20297;-71
2021/12/13 13:04:14;;;;;;;8.47;5.77;;;9.10;99.90;;;;;;5092197;28;20716;-71
2021/12/13 13:06:53;;;;;;;11.63;6.53;;;9.10;99.90;;;;;;5092095;28;20209;-72
2021/12/13 13:09:19;;;;;;;17.90;9.50;;;9.10;99.90;;;;;;5091653;28;20688;-72
2021/12/13 13:11:49;;;;;;;10.47;7.30;;;9.10;99.90;;;;;;5074181;28;20254;-72
2021/12/13 13:14:22;;;;;;;12.40;6.57;;;9.10;99.90;;;;;;5091936;28;20182;-71
2021/12/13 13:16:59;;;;;;;9.00;6.03;;;9.10;99.90;;;;;;5073996;28;20253;-72
2021/12/13 13:19:37;;;;;;;9.47;6.40;;;9.10;99.90;;;;;;5091568;28;20569;-73
2021/12/13 13:22:18;;;;;;;10.97;6.73;;;9.10;99.90;;;;;;5092380;28;20212;-71